Airfield :
LOGIN :

Register | Disclaimer

   EN    FR    IT 

 










Legend :    VFR   Marginal VFR   IFR   Intensive IFR   Very Intensive IFR
Visi :
Ceiling :
>= 8 km
>= 3000ft
5 to 8 km
1000 to 3000 ft
1500m to 5 km
500 to 1000 ft
800 to 1500m
200 to 500 ft
< 800m
< 200 ft
Symbols :   Thunderstorms  Fog  Heavy snow  Heavy precipitations  Wind > 20 kt
SIGMETs :     Misc.  Thunderstorms  Icing  Turbulence  Mountain Waves  Volcanic Ashes






- Airport Elevation : 285 ft
- IATA code : OZP


LEMO - Sevilla Moron

CURRENT METAR :
  • 181300Z 23006KT 160V300 CAVOK 22/13 Q1014 NOSIG

EXPIRED METARs :
  • 181230Z VRB05KT CAVOK 21/12 Q1015 NOSIG
  • 181200Z 25005KT 190V340 9999 FEW027 20/13 Q1015 NOSIG
  • 181130Z 25006KT 180V320 9999 SCT022 SCT032 20/13 Q1015 NOSIG
  • 181100Z VRB03KT 9999 SCT020 SCT031 19/13 Q1015 NOSIG
  • 181030Z 28005KT 230V320 9999 SCT019 SCT025 18/12 Q1015 NOSIG
  • 181000Z VRB02KT 9999 SCT015 BKN017 BKN019 17/13 Q1015 NOSIG
  • 180930Z VRB02KT 9999 SCT013 OVC016 17/13 Q1015 NOSIG
  • 180900Z 25004KT 200V290 9000 SCT013 BKN016 17/13 Q1015 NOSIG
  • 180830Z 23005KT 200V260 9000 SCT010 BKN012 16/13 Q1015 NOSIG

TAF TAF LEMO
Valid from the 18 at 09:00 until the 19 at 09:00 UTC


180800Z 1809/1909 24005KT 9999 FEW020 TX25/1815Z TN13/1906Z
PROB30
TEMPO 1809/1810 BKN012



MET'MAP, your aeronautical weather chart ! - Copyright ORBIFLY December 2007 - Disclaimer

ORBIFLY MET'MAP TEAM :

Programming & Development : Alexandra Zaïnal
Original concept : Baudouin d'Aumeries
Technical & hardware support : Manuel Goepfert
Assistance : Marc-Olivier Méhu




SOURCES & CREDITS :

   NOAA